NJE370 KELP-KMAF
Flight info
| Callsign | NJE370 |
|---|---|
| Flight time | 0h 39m |
| Altitude | 33000 |
| Route | SFL INK |
| Aircraft | C750/M-SBDE3FGHRWXY/S |
Departure
| Time | 2026-04-29 23:12 |
|---|---|
| Airport | El Paso International Airport (KELP) |
Arrival
| Time | 2026-04-29 23:52 |
|---|---|
| Airport | Midland International Air and Space Port (KMAF) |
| Time | Latitude | Longitude | Altitude | Speed | Heading |
|---|---|---|---|---|---|
| 2026-04-29 22:59 | 31.79832 | -106.37650 | 3947 ft | 0 kts | 264° |
| 2026-04-29 23:09 | 31.79841 | -106.37675 | 3947 ft | 10 kts | 314° |
| 2026-04-29 23:09 | 31.79898 | -106.37718 | 3947 ft | 11 kts | 283° |
| 2026-04-29 23:10 | 31.79972 | -106.37761 | 3946 ft | 13 kts | 333° |
| 2026-04-29 23:10 | 31.79990 | -106.37888 | 3945 ft | 20 kts | 272° |
| 2026-04-29 23:10 | 31.79991 | -106.38044 | 3943 ft | 18 kts | 271° |
| 2026-04-29 23:10 | 31.80060 | -106.38128 | 3941 ft | 14 kts | 0° |
| 2026-04-29 23:11 | 31.80084 | -106.38127 | 3942 ft | 0 kts | 1° |
| 2026-04-29 23:11 | 31.80102 | -106.38126 | 3942 ft | 10 kts | 2° |
| 2026-04-29 23:11 | 31.80163 | -106.38099 | 3944 ft | 7 kts | 57° |
| 2026-04-29 23:11 | 31.80166 | -106.38071 | 3944 ft | 5 kts | 94° |
| 2026-04-29 23:12 | 31.80151 | -106.37777 | 3949 ft | 80 kts | 93° |
| 2026-04-29 23:12 | 31.80100 | -106.36792 | 3960 ft | 155 kts | 94° |
| 2026-04-29 23:12 | 31.80048 | -106.35430 | 4264 ft | 175 kts | 93° |
| 2026-04-29 23:12 | 31.79994 | -106.34028 | 4935 ft | 164 kts | 94° |
| 2026-04-29 23:13 | 31.79980 | -106.32715 | 5353 ft | 170 kts | 88° |
| 2026-04-29 23:13 | 31.80250 | -106.30988 | 4742 ft | 251 kts | 76° |
| 2026-04-29 23:13 | 31.80535 | -106.29006 | 5393 ft | 259 kts | 88° |
| 2026-04-29 23:13 | 31.80414 | -106.26818 | 5987 ft | 271 kts | 97° |
| 2026-04-29 23:14 | 31.80191 | -106.24608 | 6685 ft | 278 kts | 97° |
| 2026-04-29 23:14 | 31.80057 | -106.22308 | 7385 ft | 289 kts | 93° |
| 2026-04-29 23:14 | 31.79996 | -106.19897 | 8089 ft | 298 kts | 92° |
| 2026-04-29 23:14 | 31.79909 | -106.17403 | 8825 ft | 309 kts | 94° |
| 2026-04-29 23:15 | 31.79784 | -106.14867 | 9560 ft | 317 kts | 94° |
| 2026-04-29 23:15 | 31.79663 | -106.12250 | 10264 ft | 321 kts | 94° |
| 2026-04-29 23:15 | 31.79561 | -106.09862 | 10388 ft | 270 kts | 96° |
| 2026-04-29 23:15 | 31.79418 | -106.07684 | 10136 ft | 264 kts | 95° |
| 2026-04-29 23:16 | 31.79259 | -106.05528 | 9744 ft | 266 kts | 97° |
| 2026-04-29 23:16 | 31.79115 | -106.03551 | 10194 ft | 221 kts | 95° |
| 2026-04-29 23:16 | 31.79046 | -106.01778 | 10606 ft | 217 kts | 94° |
| 2026-04-29 23:16 | 31.79002 | -106.00031 | 11306 ft | 204 kts | 94° |
| 2026-04-29 23:17 | 31.78973 | -105.98444 | 12006 ft | 191 kts | 91° |
| 2026-04-29 23:17 | 31.78989 | -105.96822 | 12131 ft | 214 kts | 92° |
| 2026-04-29 23:17 | 31.78932 | -105.94910 | 12010 ft | 252 kts | 95° |
| 2026-04-29 23:17 | 31.78823 | -105.92776 | 11938 ft | 258 kts | 95° |
| 2026-04-29 23:18 | 31.78725 | -105.90704 | 11843 ft | 258 kts | 95° |
| 2026-04-29 23:18 | 31.78629 | -105.88523 | 11863 ft | 283 kts | 95° |
| 2026-04-29 23:18 | 31.78522 | -105.86112 | 11839 ft | 297 kts | 94° |
| 2026-04-29 23:18 | 31.78423 | -105.83808 | 12109 ft | 264 kts | 94° |
| 2026-04-29 23:19 | 31.78330 | -105.81730 | 12553 ft | 258 kts | 95° |
| 2026-04-29 23:19 | 31.78232 | -105.79644 | 13025 ft | 261 kts | 95° |
| 2026-04-29 23:19 | 31.78132 | -105.77484 | 13521 ft | 263 kts | 95° |
| 2026-04-29 23:19 | 31.78036 | -105.75361 | 13984 ft | 264 kts | 95° |
| 2026-04-29 23:20 | 31.77937 | -105.73174 | 14443 ft | 265 kts | 95° |
| 2026-04-29 23:20 | 31.77838 | -105.71040 | 14898 ft | 265 kts | 95° |
| 2026-04-29 23:20 | 31.77738 | -105.68869 | 15378 ft | 266 kts | 95° |
| 2026-04-29 23:20 | 31.77637 | -105.66691 | 15852 ft | 266 kts | 95° |
| 2026-04-29 23:21 | 31.77536 | -105.64506 | 16343 ft | 267 kts | 95° |
| 2026-04-29 23:21 | 31.77434 | -105.62332 | 16828 ft | 268 kts | 96° |
| 2026-04-29 23:21 | 31.77331 | -105.60132 | 17334 ft | 269 kts | 96° |
| 2026-04-29 23:21 | 31.77228 | -105.57953 | 17851 ft | 270 kts | 96° |
| 2026-04-29 23:22 | 31.77124 | -105.55744 | 18324 ft | 271 kts | 96° |
| 2026-04-29 23:22 | 31.77019 | -105.53525 | 18767 ft | 272 kts | 96° |
| 2026-04-29 23:22 | 31.76913 | -105.51297 | 19219 ft | 273 kts | 96° |
| 2026-04-29 23:22 | 31.76807 | -105.49085 | 19679 ft | 274 kts | 96° |
| 2026-04-29 23:23 | 31.76699 | -105.46828 | 20147 ft | 275 kts | 96° |
| 2026-04-29 23:23 | 31.76592 | -105.44594 | 20611 ft | 276 kts | 96° |
| 2026-04-29 23:23 | 31.76483 | -105.42341 | 21090 ft | 277 kts | 96° |
| 2026-04-29 23:23 | 31.76374 | -105.40078 | 21576 ft | 277 kts | 96° |
| 2026-04-29 23:24 | 31.76262 | -105.37783 | 22076 ft | 277 kts | 96° |
| 2026-04-29 23:24 | 31.76152 | -105.35520 | 22573 ft | 277 kts | 96° |
| 2026-04-29 23:24 | 31.76037 | -105.33205 | 22844 ft | 289 kts | 96° |
| 2026-04-29 23:24 | 31.75921 | -105.30861 | 23114 ft | 298 kts | 96° |
| 2026-04-29 23:25 | 31.75798 | -105.28361 | 23399 ft | 308 kts | 96° |
| 2026-04-29 23:25 | 31.75673 | -105.25805 | 23650 ft | 316 kts | 96° |
| 2026-04-29 23:25 | 31.75544 | -105.23219 | 23895 ft | 324 kts | 96° |
| 2026-04-29 23:25 | 31.75410 | -105.20539 | 24144 ft | 331 kts | 96° |
| 2026-04-29 23:26 | 31.75273 | -105.17800 | 24390 ft | 338 kts | 96° |
| 2026-04-29 23:26 | 31.75132 | -105.15012 | 24634 ft | 345 kts | 96° |
| 2026-04-29 23:26 | 31.74989 | -105.12171 | 24880 ft | 351 kts | 96° |
| 2026-04-29 23:26 | 31.74848 | -105.09315 | 25118 ft | 356 kts | 95° |
| 2026-04-29 23:27 | 31.74968 | -105.06378 | 25326 ft | 362 kts | 85° |
| 2026-04-29 23:27 | 31.75216 | -105.03404 | 25580 ft | 367 kts | 84° |
| 2026-04-29 23:27 | 31.75451 | -105.00387 | 25830 ft | 371 kts | 85° |
| 2026-04-29 23:27 | 31.75669 | -104.97349 | 26082 ft | 375 kts | 85° |
| 2026-04-29 23:28 | 31.75891 | -104.94311 | 26329 ft | 379 kts | 85° |
| 2026-04-29 23:28 | 31.76128 | -104.91203 | 26580 ft | 382 kts | 85° |
| 2026-04-29 23:28 | 31.76365 | -104.88074 | 26827 ft | 385 kts | 85° |
| 2026-04-29 23:28 | 31.76596 | -104.84930 | 27076 ft | 385 kts | 85° |
| 2026-04-29 23:29 | 31.76824 | -104.81828 | 27314 ft | 385 kts | 85° |
| 2026-04-29 23:29 | 31.77057 | -104.78671 | 27562 ft | 386 kts | 85° |
| 2026-04-29 23:29 | 31.77290 | -104.75521 | 27809 ft | 386 kts | 85° |
| 2026-04-29 23:29 | 31.77521 | -104.72377 | 28059 ft | 386 kts | 85° |
| 2026-04-29 23:30 | 31.77745 | -104.69293 | 28304 ft | 386 kts | 85° |
| 2026-04-29 23:30 | 31.77974 | -104.66134 | 28550 ft | 387 kts | 85° |
| 2026-04-29 23:30 | 31.78204 | -104.62970 | 28798 ft | 387 kts | 85° |
| 2026-04-29 23:30 | 31.78430 | -104.59850 | 29054 ft | 387 kts | 84° |
| 2026-04-29 23:31 | 31.78659 | -104.56662 | 29314 ft | 387 kts | 84° |
| 2026-04-29 23:31 | 31.78884 | -104.53535 | 29577 ft | 387 kts | 84° |
| 2026-04-29 23:31 | 31.79109 | -104.50379 | 29835 ft | 387 kts | 84° |
| 2026-04-29 23:31 | 31.79337 | -104.47193 | 29675 ft | 401 kts | 84° |
| 2026-04-29 23:32 | 31.79805 | -104.40586 | 29725 ft | 413 kts | 84° |
| 2026-04-29 23:32 | 31.80286 | -104.33751 | 29726 ft | 423 kts | 85° |
| 2026-04-29 23:33 | 31.80770 | -104.26813 | 29722 ft | 431 kts | 85° |
| 2026-04-29 23:33 | 31.81249 | -104.19886 | 29700 ft | 413 kts | 85° |
| 2026-04-29 23:34 | 31.81703 | -104.13293 | 29686 ft | 396 kts | 85° |
| 2026-04-29 23:34 | 31.82136 | -104.06944 | 29274 ft | 394 kts | 85° |
| 2026-04-29 23:35 | 31.82361 | -104.03635 | 28340 ft | 416 kts | 85° |
| 2026-04-29 23:35 | 31.82594 | -104.00195 | 27483 ft | 418 kts | 85° |
| 2026-04-29 23:35 | 31.82819 | -103.96819 | 26984 ft | 404 kts | 85° |
| 2026-04-29 23:35 | 31.83030 | -103.93667 | 26977 ft | 378 kts | 85° |
| 2026-04-29 23:36 | 31.83230 | -103.90675 | 26963 ft | 353 kts | 85° |
| 2026-04-29 23:36 | 31.83417 | -103.87871 | 26954 ft | 334 kts | 85° |
| 2026-04-29 23:36 | 31.83535 | -103.86095 | 26958 ft | 325 kts | 85° |
| 2026-04-29 23:36 | 31.83765 | -103.82630 | 26965 ft | 320 kts | 85° |
| 2026-04-29 23:37 | 31.83938 | -103.80008 | 26979 ft | 325 kts | 85° |
| 2026-04-29 23:37 | 31.84055 | -103.78225 | 26979 ft | 331 kts | 85° |
| 2026-04-29 23:37 | 31.84235 | -103.75486 | 27004 ft | 338 kts | 85° |
| 2026-04-29 23:37 | 31.84418 | -103.72681 | 27000 ft | 345 kts | 85° |
| 2026-04-29 23:38 | 31.84602 | -103.69844 | 26995 ft | 347 kts | 85° |
| 2026-04-29 23:38 | 31.84786 | -103.67016 | 27001 ft | 346 kts | 85° |
| 2026-04-29 23:38 | 31.84968 | -103.64211 | 26999 ft | 345 kts | 85° |
| 2026-04-29 23:38 | 31.85148 | -103.61402 | 26995 ft | 344 kts | 85° |
| 2026-04-29 23:39 | 31.85329 | -103.58586 | 26996 ft | 344 kts | 85° |
| 2026-04-29 23:39 | 31.85508 | -103.55808 | 26990 ft | 344 kts | 85° |
| 2026-04-29 23:39 | 31.85687 | -103.52998 | 26993 ft | 344 kts | 85° |
| 2026-04-29 23:39 | 31.85866 | -103.50191 | 26990 ft | 344 kts | 85° |
| 2026-04-29 23:40 | 31.86043 | -103.47387 | 26992 ft | 344 kts | 85° |
| 2026-04-29 23:40 | 31.86221 | -103.44573 | 26997 ft | 344 kts | 85° |
| 2026-04-29 23:40 | 31.86394 | -103.41818 | 26994 ft | 344 kts | 85° |
| 2026-04-29 23:40 | 31.86571 | -103.38999 | 27001 ft | 344 kts | 85° |
| 2026-04-29 23:41 | 31.86746 | -103.36191 | 27005 ft | 344 kts | 85° |
| 2026-04-29 23:41 | 31.86922 | -103.33369 | 27009 ft | 343 kts | 85° |
| 2026-04-29 23:41 | 31.87094 | -103.30594 | 27014 ft | 343 kts | 85° |
| 2026-04-29 23:41 | 31.87268 | -103.27779 | 27011 ft | 343 kts | 85° |
| 2026-04-29 23:42 | 31.87446 | -103.24980 | 27012 ft | 343 kts | 84° |
| 2026-04-29 23:42 | 31.87911 | -103.22228 | 27027 ft | 340 kts | 72° |
| 2026-04-29 23:42 | 31.88507 | -103.19522 | 27033 ft | 341 kts | 72° |
| 2026-04-29 23:42 | 31.89082 | -103.16840 | 27033 ft | 342 kts | 73° |
| 2026-04-29 23:43 | 31.89646 | -103.14119 | 27029 ft | 342 kts | 73° |
| 2026-04-29 23:43 | 31.90214 | -103.11393 | 27033 ft | 341 kts | 73° |
| 2026-04-29 23:43 | 31.90783 | -103.08709 | 27035 ft | 341 kts | 72° |
| 2026-04-29 23:43 | 31.91356 | -103.05998 | 27039 ft | 341 kts | 73° |
| 2026-04-29 23:44 | 31.91926 | -103.03279 | 27034 ft | 341 kts | 73° |
| 2026-04-29 23:44 | 31.92495 | -103.00557 | 27037 ft | 341 kts | 73° |
| 2026-04-29 23:44 | 31.93064 | -102.97844 | 27038 ft | 340 kts | 73° |
| 2026-04-29 23:44 | 31.93625 | -102.95164 | 27040 ft | 340 kts | 73° |
| 2026-04-29 23:45 | 31.94195 | -102.92442 | 26801 ft | 348 kts | 73° |
| 2026-04-29 23:45 | 31.94781 | -102.89652 | 25894 ft | 367 kts | 73° |
| 2026-04-29 23:45 | 31.95392 | -102.86722 | 25002 ft | 379 kts | 74° |
| 2026-04-29 23:45 | 31.96028 | -102.83646 | 24132 ft | 386 kts | 74° |
| 2026-04-29 23:46 | 31.96675 | -102.80531 | 23240 ft | 385 kts | 74° |
| 2026-04-29 23:46 | 31.97335 | -102.77371 | 22222 ft | 412 kts | 74° |
| 2026-04-29 23:46 | 31.98042 | -102.73986 | 21303 ft | 446 kts | 75° |
| 2026-04-29 23:46 | 31.98802 | -102.70306 | 20434 ft | 470 kts | 75° |
| 2026-04-29 23:47 | 31.99572 | -102.66550 | 19584 ft | 469 kts | 75° |
| 2026-04-29 23:47 | 32.00339 | -102.62828 | 18722 ft | 461 kts | 75° |
| 2026-04-29 23:47 | 32.01085 | -102.59227 | 17803 ft | 452 kts | 75° |
| 2026-04-29 23:47 | 32.01823 | -102.55648 | 16804 ft | 444 kts | 75° |
| 2026-04-29 23:48 | 32.02544 | -102.52131 | 15832 ft | 437 kts | 75° |
| 2026-04-29 23:48 | 32.03331 | -102.48687 | 14864 ft | 428 kts | 70° |
| 2026-04-29 23:48 | 32.03798 | -102.45284 | 13828 ft | 427 kts | 90° |
| 2026-04-29 23:48 | 32.03205 | -102.41889 | 12692 ft | 419 kts | 113° |
| 2026-04-29 23:49 | 32.01978 | -102.39063 | 11733 ft | 349 kts | 124° |
| 2026-04-29 23:49 | 32.00758 | -102.36895 | 10786 ft | 297 kts | 130° |
| 2026-04-29 23:49 | 31.99685 | -102.34952 | 9833 ft | 271 kts | 126° |
| 2026-04-29 23:49 | 31.98892 | -102.32990 | 8800 ft | 258 kts | 116° |
| 2026-04-29 23:50 | 31.98267 | -102.31074 | 7813 ft | 238 kts | 115° |
| 2026-04-29 23:50 | 31.97697 | -102.29369 | 6535 ft | 221 kts | 114° |
| 2026-04-29 23:50 | 31.96533 | -102.26235 | 4229 ft | 180 kts | 113° |
| 2026-04-29 23:51 | 31.96030 | -102.25000 | 3742 ft | 155 kts | 113° |
| 2026-04-29 23:51 | 31.95605 | -102.23952 | 3332 ft | 134 kts | 111° |
| 2026-04-29 23:51 | 31.95266 | -102.23012 | 3113 ft | 115 kts | 109° |
| 2026-04-29 23:51 | 31.94942 | -102.22100 | 3008 ft | 127 kts | 111° |
| 2026-04-29 23:52 | 31.94574 | -102.21118 | 2921 ft | 133 kts | 112° |
| 2026-04-29 23:52 | 31.94240 | -102.20209 | 2869 ft | 87 kts | 112° |
| 2026-04-29 23:52 | 31.94118 | -102.19936 | 2868 ft | 8 kts | 182° |
| 2026-04-29 23:52 | 31.94097 | -102.19942 | 2868 ft | 1 kts | 190° |
| 2026-04-29 23:53 | 31.94092 | -102.19943 | 2868 ft | 2 kts | 190° |
| 2026-04-29 23:53 | 31.94057 | -102.19944 | 2868 ft | 8 kts | 177° |
| 2026-04-29 23:53 | 31.93972 | -102.19938 | 2866 ft | 17 kts | 176° |
| 2026-04-29 23:53 | 31.93882 | -102.19931 | 2864 ft | 0 kts | 175° |
| 2026-04-29 23:55 | 31.93880 | -102.19931 | 2864 ft | 1 kts | 174° |
| 2026-04-29 23:55 | 31.93875 | -102.19930 | 2864 ft | 1 kts | 175° |
| 2026-04-29 23:55 | 31.93873 | -102.19930 | 2864 ft | 0 kts | 175° |